createdAt,value
2023-03-26T00:01:36.979Z,99897.03
2023-03-26T00:04:06.810Z,99895.47
2023-03-26T00:06:39.234Z,99901.00
2023-03-26T00:09:09.548Z,99900.25
2023-03-26T00:11:36.595Z,99898.47
2023-03-26T00:14:03.814Z,99892.75
2023-03-26T00:16:32.311Z,99888.31
2023-03-26T00:19:01.398Z,99900.69
2023-03-26T00:21:30.635Z,99884.34
2023-03-26T00:24:00.021Z,99888.19
2023-03-26T00:26:27.776Z,99889.25
2023-03-26T00:28:54.854Z,99884.31
2023-03-26T00:31:22.250Z,99895.84
2023-03-26T00:33:55.632Z,99893.28
2023-03-26T00:36:25.679Z,99891.38
2023-03-26T00:38:54.118Z,99889.84
2023-03-26T00:41:24.943Z,99876.72
2023-03-26T00:43:56.263Z,99888.44
2023-03-26T00:46:24.695Z,99880.50
2023-03-26T00:48:51.719Z,99888.56
2023-03-26T00:51:20.766Z,99884.97
2023-03-26T00:53:49.101Z,99885.97
2023-03-26T00:56:16.927Z,99883.53
2023-03-26T00:58:46.155Z,99868.81
2023-03-26T01:01:16.243Z,99877.47
2023-03-26T01:03:57.120Z,99880.09
2023-03-26T01:06:36.024Z,99878.41
2023-03-26T01:09:16.199Z,99879.41
2023-03-26T01:11:44.211Z,99876.88
2023-03-26T01:14:23.651Z,99884.84
2023-03-26T01:16:58.994Z,99880.50
2023-03-26T01:19:40.804Z,99882.25
2023-03-26T01:22:13.069Z,99882.28
2023-03-26T01:24:40.727Z,99885.81
2023-03-26T01:27:28.167Z,99877.16
2023-03-26T01:30:29.940Z,99883.25
2023-03-26T01:33:06.833Z,99881.63
2023-03-26T01:36:11.188Z,99886.97
2023-03-26T01:38:53.332Z,99894.72
2023-03-26T01:41:33.878Z,99885.06
2023-03-26T01:44:03.122Z,99889.38
2023-03-26T01:46:36.216Z,99897.38
2023-03-26T01:49:12.933Z,99913.84
2023-03-26T01:51:42.203Z,99910.25
2023-03-26T01:54:19.732Z,99905.81
2023-03-26T01:56:58.655Z,99898.91
2023-03-26T01:59:56.312Z,99890.94
2023-03-26T02:02:46.637Z,99891.78
2023-03-26T02:05:29.542Z,99890.12
2023-03-26T02:08:21.102Z,99883.16
2023-03-26T02:10:52.588Z,99898.00
2023-03-26T02:13:20.056Z,99891.81
2023-03-26T02:16:04.686Z,99897.84
2023-03-26T02:18:39.090Z,99904.06
2023-03-26T02:21:11.054Z,99908.47
2023-03-26T02:23:46.800Z,99901.37
2023-03-26T02:26:18.397Z,99909.84
2023-03-26T02:28:45.665Z,99910.69
2023-03-26T02:31:13.903Z,99905.56
2023-03-26T02:33:40.883Z,99914.44
2023-03-26T02:36:08.692Z,99900.53
2023-03-26T02:38:35.990Z,99893.72
2023-03-26T02:41:04.093Z,99899.12
2023-03-26T02:43:30.951Z,99897.47
2023-03-26T02:45:58.311Z,99896.66
2023-03-26T02:48:26.254Z,99894.09
2023-03-26T02:50:54.808Z,99898.50
2023-03-26T02:53:24.155Z,99891.56
2023-03-26T02:55:51.208Z,99890.72
2023-03-26T02:58:18.172Z,99882.00
2023-03-26T03:00:46.899Z,99890.91
2023-03-26T03:03:14.541Z,99886.63
2023-03-26T03:05:43.351Z,99891.06
2023-03-26T03:08:10.408Z,99888.50
2023-03-26T03:10:37.900Z,99870.16
2023-03-26T03:13:07.811Z,99885.13
2023-03-26T03:15:35.143Z,99893.97
2023-03-26T03:18:02.526Z,99885.34
2023-03-26T03:20:30.467Z,99899.44
2023-03-26T03:22:57.532Z,99903.84
2023-03-26T03:25:26.086Z,99904.81
2023-03-26T03:27:54.063Z,99899.50
2023-03-26T03:30:21.108Z,99902.22
2023-03-26T03:32:48.121Z,99889.19
2023-03-26T03:35:15.476Z,99897.97
2023-03-26T03:37:42.397Z,99892.78
2023-03-26T03:40:11.082Z,99884.00
2023-03-26T03:42:38.492Z,99875.31
2023-03-26T03:45:06.620Z,99885.75
2023-03-26T03:47:33.809Z,99863.94
2023-03-26T03:50:00.910Z,99893.69
2023-03-26T03:52:28.218Z,99894.69
2023-03-26T03:54:57.732Z,99897.34
2023-03-26T03:57:24.608Z,99909.63
2023-03-26T03:59:51.546Z,99908.78
2023-03-26T04:02:26.245Z,99905.31
2023-03-26T04:04:54.401Z,99905.38
2023-03-26T04:07:21.253Z,99915.88
2023-03-26T04:09:48.407Z,99908.16
2023-03-26T04:12:15.539Z,99908.09
2023-03-26T04:14:42.669Z,99902.91
2023-03-26T04:17:10.291Z,99902.03
2023-03-26T04:19:37.483Z,99898.56
2023-03-26T04:22:04.359Z,99902.94
2023-03-26T04:24:38.371Z,99874.09
2023-03-26T04:27:06.551Z,99895.16
2023-03-26T04:29:42.966Z,99903.81
2023-03-26T04:32:24.713Z,99888.91
2023-03-26T04:34:52.591Z,99916.97
2023-03-26T04:37:32.391Z,99905.59
2023-03-26T04:40:00.527Z,99902.84
2023-03-26T04:42:28.772Z,99909.75
2023-03-26T04:44:55.581Z,99894.13
2023-03-26T04:47:23.557Z,99908.16
2023-03-26T04:49:50.720Z,99914.31
2023-03-26T04:52:17.677Z,99912.09
2023-03-26T04:54:45.693Z,99907.72
2023-03-26T04:57:27.592Z,99901.53
2023-03-26T04:59:54.415Z,99909.34
2023-03-26T05:02:21.289Z,99915.53
2023-03-26T05:04:50.077Z,99919.97
2023-03-26T05:07:19.966Z,99930.34
2023-03-26T05:09:46.885Z,99920.75
2023-03-26T05:12:13.998Z,99920.66
2023-03-26T05:14:41.028Z,99925.00
2023-03-26T05:17:10.991Z,99915.25
2023-03-26T05:19:39.768Z,99910.00
2023-03-26T05:22:06.810Z,99917.00
2023-03-26T05:24:33.951Z,99917.87
2023-03-26T05:27:00.840Z,99919.47
2023-03-26T05:29:27.983Z,99926.41
2023-03-26T05:31:54.812Z,99922.88
2023-03-26T05:34:24.264Z,99920.97
2023-03-26T05:36:51.154Z,99912.06
2023-03-26T05:39:18.189Z,99883.91
2023-03-26T05:41:45.178Z,99881.00
2023-03-26T05:44:12.072Z,99897.31
2023-03-26T05:46:39.022Z,99893.59
2023-03-26T05:49:06.299Z,99896.00
2023-03-26T05:51:33.159Z,99882.62
2023-03-26T05:54:00.258Z,99894.53
2023-03-26T05:56:27.164Z,99895.19
2023-03-26T05:58:55.702Z,99876.78
2023-03-26T06:01:22.785Z,99895.75
2023-03-26T06:03:50.666Z,99905.38
2023-03-26T06:06:20.531Z,99896.31
2023-03-26T06:09:02.060Z,99897.19
2023-03-26T06:11:36.556Z,99895.31
2023-03-26T06:14:03.432Z,99894.22
2023-03-26T06:16:30.305Z,99890.53
2023-03-26T06:18:57.929Z,99881.53
2023-03-26T06:21:26.348Z,99890.81
2023-03-26T06:23:53.464Z,99865.25
2023-03-26T06:26:20.843Z,99897.16
2023-03-26T06:28:48.248Z,99899.72
2023-03-26T06:33:44.327Z,99893.03
2023-03-26T06:36:11.500Z,99901.87
2023-03-26T06:38:38.382Z,99901.34
2023-03-26T06:41:06.802Z,99896.03
2023-03-26T06:43:34.014Z,99893.00
2023-03-26T06:46:01.722Z,99896.28
2023-03-26T06:48:28.860Z,99895.97
2023-03-26T06:50:56.102Z,99890.00
2023-03-26T06:53:23.133Z,99894.53
2023-03-26T06:55:50.126Z,99896.56
2023-03-26T06:58:17.396Z,99861.78
2023-03-26T07:00:44.350Z,99888.44
2023-03-26T07:03:11.808Z,99887.25
2023-03-26T07:05:41.533Z,99894.53
2023-03-26T07:08:08.901Z,99883.12
2023-03-26T07:10:36.020Z,99886.87
2023-03-26T07:13:03.184Z,99889.75
2023-03-26T07:15:30.524Z,99885.84
2023-03-26T07:17:57.577Z,99881.28
2023-03-26T07:20:25.221Z,99878.00
2023-03-26T07:22:52.758Z,99884.13
2023-03-26T07:25:20.586Z,99886.84
2023-03-26T07:28:08.805Z,99877.75
2023-03-26T07:31:05.492Z,99883.94
2023-03-26T07:33:38.880Z,99880.78
2023-03-26T07:36:17.224Z,99870.34
2023-03-26T07:39:22.566Z,99872.41
2023-03-26T07:42:08.726Z,99883.78
2023-03-26T07:45:03.228Z,99866.34
2023-03-26T07:47:33.867Z,99893.38
2023-03-26T07:50:02.943Z,99887.84
2023-03-26T07:52:30.531Z,99878.81
2023-03-26T07:54:57.865Z,99874.75
2023-03-26T07:57:50.732Z,99868.50
2023-03-26T08:00:40.795Z,99890.03
2023-03-26T08:03:29.812Z,99886.37
2023-03-26T08:06:19.785Z,99883.41
2023-03-26T08:09:13.491Z,99886.09
2023-03-26T08:11:50.962Z,99880.34
2023-03-26T08:14:26.203Z,99885.13
2023-03-26T08:17:25.663Z,99878.63
2023-03-26T08:19:58.133Z,99884.97
2023-03-26T08:22:36.764Z,99879.56
2023-03-26T08:25:18.644Z,99880.50
2023-03-26T08:27:59.129Z,99874.72
2023-03-26T08:30:27.402Z,99871.53
2023-03-26T08:32:58.355Z,99880.44
2023-03-26T08:35:27.402Z,99877.59
2023-03-26T08:37:54.603Z,99883.91
2023-03-26T08:40:59.998Z,99883.16
2023-03-26T08:44:05.415Z,99880.91
2023-03-26T08:46:50.820Z,99868.56
2023-03-26T08:49:21.924Z,99879.94
2023-03-26T08:52:05.179Z,99872.50
2023-03-26T08:54:41.370Z,99852.34
2023-03-26T08:57:13.951Z,99872.31
2023-03-26T09:00:02.580Z,99859.19
2023-03-26T09:02:47.130Z,99867.00
2023-03-26T09:05:53.150Z,99846.66
2023-03-26T09:08:59.208Z,99867.81
2023-03-26T09:11:35.145Z,99853.84
2023-03-26T09:46:07.427Z,99855.19
2023-03-26T09:49:07.152Z,99850.59
2023-03-26T09:52:05.857Z,99848.25
2023-03-26T09:54:57.754Z,99846.03
2023-03-26T09:57:30.835Z,99835.47
2023-03-26T10:00:47.449Z,99836.59
2023-03-26T10:03:44.045Z,99843.03
2023-03-26T10:06:14.214Z,99829.91
2023-03-26T10:09:15.399Z,99816.69
2023-03-26T10:11:42.290Z,99827.19
2023-03-26T10:14:18.263Z,99813.50
2023-03-26T10:17:25.799Z,99798.81
2023-03-26T10:20:32.765Z,99798.34
2023-03-26T10:23:45.776Z,99785.88
2023-03-26T10:26:30.718Z,99780.50
2023-03-26T10:29:24.213Z,99764.94
2023-03-26T10:32:17.058Z,99772.00
2023-03-26T10:35:21.900Z,99759.75
2023-03-26T10:38:07.020Z,99759.44
2023-03-26T10:40:55.454Z,99761.06
2023-03-26T10:43:49.783Z,99740.59
2023-03-26T10:46:29.937Z,99754.44
2023-03-26T10:49:03.515Z,99732.44
2023-03-26T10:51:59.616Z,99738.31
2023-03-26T10:54:44.328Z,99732.75
2023-03-26T10:57:19.968Z,99726.81
2023-03-26T10:59:48.993Z,99714.88
2023-03-26T11:02:30.435Z,99706.47
2023-03-26T11:05:22.734Z,99699.28
2023-03-26T11:07:59.116Z,99706.34
2023-03-26T11:10:49.791Z,99695.41
2023-03-26T11:13:26.482Z,99680.03
2023-03-26T11:16:19.701Z,99690.13
2023-03-26T11:19:11.154Z,99686.38
2023-03-26T11:21:51.072Z,99685.44
2023-03-26T11:24:36.288Z,99680.91
2023-03-26T11:27:15.565Z,99668.78
2023-03-26T11:30:34.987Z,99669.22
2023-03-26T11:33:07.763Z,99659.63
2023-03-26T11:35:42.704Z,99652.75
2023-03-26T11:38:20.558Z,99655.72
2023-03-26T11:40:53.203Z,99642.09
2023-03-26T11:43:26.682Z,99659.81
2023-03-26T11:45:54.129Z,99643.03
2023-03-26T11:54:40.398Z,99616.38
2023-03-26T11:57:13.840Z,99616.38
2023-03-26T11:59:57.661Z,99615.72
2023-03-26T12:02:35.722Z,99612.34
2023-03-26T12:05:12.154Z,99613.41
2023-03-26T12:08:00.292Z,99584.38
2023-03-26T12:10:39.684Z,99577.16
2023-03-26T12:13:22.003Z,99577.66
2023-03-26T12:15:49.841Z,99572.47
2023-03-26T12:18:34.834Z,99573.34
2023-03-26T12:21:08.335Z,99568.97
2023-03-26T12:23:57.157Z,99573.13
2023-03-26T12:26:36.080Z,99566.97
2023-03-26T12:29:15.058Z,99557.53
2023-03-26T12:32:06.125Z,99555.12
2023-03-26T12:34:37.508Z,99545.75
2023-03-26T12:37:06.357Z,99536.28
2023-03-26T12:40:10.011Z,99521.75
2023-03-26T12:44:47.043Z,99537.56
2023-03-26T12:45:20.120Z,99538.06
2023-03-26T12:47:59.920Z,99531.53
2023-03-26T12:50:59.458Z,99522.63
2023-03-26T12:53:55.608Z,99517.09
2023-03-26T12:56:40.895Z,99517.66
2023-03-26T12:59:38.720Z,99510.09
2023-03-26T13:02:08.466Z,99497.59
2023-03-26T13:05:04.915Z,99502.31
2023-03-26T13:07:52.038Z,99492.41
2023-03-26T13:10:26.571Z,99499.31
2023-03-26T13:13:32.539Z,99501.03
2023-03-26T13:16:17.002Z,99492.59
2023-03-26T13:18:52.769Z,99482.47
2023-03-26T13:21:57.480Z,99485.13
2023-03-26T13:24:33.882Z,99464.94
2023-03-26T13:27:19.780Z,99466.09
2023-03-26T13:30:21.523Z,99470.38
2023-03-26T13:32:57.828Z,99450.50
2023-03-26T13:35:41.507Z,99451.75
2023-03-26T13:38:59.157Z,99448.03
2023-03-26T13:41:27.927Z,99443.16
2023-03-26T13:44:09.760Z,99433.09
2023-03-26T13:46:52.497Z,99448.09
2023-03-26T13:49:37.544Z,99426.22
2023-03-26T13:52:12.820Z,99416.06
2023-03-26T13:54:44.629Z,99424.84
2023-03-26T13:57:29.971Z,99424.09
2023-03-26T14:00:06.769Z,99412.06
2023-03-26T14:02:40.631Z,99411.28
2023-03-26T14:05:14.391Z,99400.00
2023-03-26T14:08:17.173Z,99390.94
2023-03-26T14:10:54.094Z,99396.94
2023-03-26T14:13:49.890Z,99377.97
2023-03-26T14:16:22.427Z,99388.22
2023-03-26T14:18:54.808Z,99370.81
2023-03-26T14:21:40.899Z,99380.03
2023-03-26T14:24:53.116Z,99373.94
2023-03-26T14:27:45.349Z,99367.56
2023-03-26T14:30:46.036Z,99367.56
2023-03-26T14:33:39.001Z,99361.31
2023-03-26T14:36:09.331Z,99355.50
2023-03-26T14:39:30.719Z,99355.69
2023-03-26T15:22:40.448Z,99282.41
2023-03-26T15:25:31.877Z,99274.53
2023-03-26T15:28:22.663Z,99276.31
2023-03-26T15:31:06.764Z,99264.00
2023-03-26T15:34:10.502Z,99261.06
2023-03-26T15:37:07.701Z,99260.97
2023-03-26T15:39:59.799Z,99262.88
2023-03-26T15:42:30.360Z,99252.72
2023-03-26T15:45:22.510Z,99256.03
2023-03-26T15:48:03.513Z,99255.63
2023-03-26T15:51:04.538Z,99251.00
2023-03-26T15:53:38.871Z,99239.81
2023-03-26T15:56:34.742Z,99246.75
2023-03-26T15:59:15.773Z,99230.22
2023-03-26T16:02:02.533Z,99237.88
2023-03-26T16:04:55.821Z,99225.16
2023-03-26T16:07:42.476Z,99224.88
2023-03-26T16:10:22.243Z,99213.84
2023-03-26T16:13:21.983Z,99206.56
2023-03-26T16:16:04.896Z,99197.34
2023-03-26T16:18:39.414Z,99196.56
2023-03-26T16:21:32.213Z,99185.94
2023-03-26T16:24:03.717Z,99189.78
2023-03-26T16:26:55.223Z,99191.19
2023-03-26T16:29:31.053Z,99178.63
2023-03-26T16:32:26.165Z,99177.56
2023-03-26T16:35:03.148Z,99176.84
2023-03-26T16:37:36.921Z,99188.56
2023-03-26T16:40:18.742Z,99190.84
2023-03-26T16:43:13.974Z,99186.00
2023-03-26T16:46:06.462Z,99187.31
2023-03-26T16:49:04.447Z,99174.28
2023-03-26T16:51:51.007Z,99186.37
2023-03-26T16:54:47.858Z,99183.31
2023-03-26T16:57:24.243Z,99185.53
2023-03-26T17:00:06.363Z,99188.62
2023-03-26T17:02:43.120Z,99186.31
2023-03-26T17:05:18.276Z,99195.63
2023-03-26T17:08:14.191Z,99182.69
2023-03-26T17:11:01.113Z,99186.50
2023-03-26T17:13:42.002Z,99181.62
2023-03-26T17:16:23.056Z,99175.66
2023-03-26T17:19:04.398Z,99185.41
2023-03-26T17:21:47.286Z,99188.75
2023-03-26T17:24:43.049Z,99182.56
2023-03-26T17:27:44.538Z,99180.19
2023-03-26T17:30:46.840Z,99184.97
2023-03-26T17:33:24.261Z,99190.50
2023-03-26T17:36:12.132Z,99187.91
2023-03-26T17:38:39.825Z,99188.75
2023-03-26T17:41:16.485Z,99198.00
2023-03-26T17:43:52.739Z,99187.59
2023-03-26T17:46:43.101Z,99185.56
2023-03-26T17:49:13.973Z,99190.19
2023-03-26T17:52:00.259Z,99189.47
2023-03-26T17:54:35.335Z,99185.06
2023-03-26T17:57:13.135Z,99192.34
2023-03-26T17:59:43.698Z,99195.13
2023-03-26T18:02:19.362Z,99198.72
2023-03-26T18:04:50.720Z,99195.41
2023-03-26T18:07:42.493Z,99194.69
2023-03-26T18:10:50.550Z,99190.47
2023-03-26T18:13:24.248Z,99203.06
2023-03-26T18:16:25.402Z,99194.38
2023-03-26T18:19:05.798Z,99203.06
2023-03-26T18:21:40.184Z,99202.38
2023-03-26T18:24:15.129Z,99185.66
2023-03-26T18:26:54.528Z,99181.16
2023-03-26T18:29:28.461Z,99176.91
2023-03-26T18:32:22.716Z,99169.78
2023-03-26T18:34:58.425Z,99175.09
2023-03-26T18:37:36.765Z,99153.56
2023-03-26T18:40:35.288Z,99165.31
2023-03-26T18:43:04.166Z,99158.81
2023-03-26T18:45:41.887Z,99164.16
2023-03-26T18:48:20.926Z,99140.63
2023-03-26T18:51:04.974Z,99138.28
2023-03-26T18:53:48.704Z,99155.59
2023-03-26T18:56:31.196Z,99151.03
2023-03-26T18:59:01.210Z,99145.91
2023-03-26T19:01:33.191Z,99136.94
2023-03-26T19:04:06.548Z,99135.00
2023-03-26T19:06:39.140Z,99127.00
2023-03-26T19:09:28.067Z,99119.06
2023-03-26T19:12:36.521Z,99117.59
2023-03-26T19:15:11.238Z,99094.63
2023-03-26T19:17:58.465Z,99105.12
2023-03-26T19:20:34.423Z,99097.94
2023-03-26T19:23:02.557Z,99089.97
2023-03-26T19:25:38.430Z,99092.69
2023-03-26T19:28:07.279Z,99083.81
2023-03-26T19:30:41.155Z,99063.37
2023-03-26T19:33:21.323Z,99076.53
2023-03-26T19:36:05.847Z,99066.28
2023-03-26T19:39:14.735Z,99064.66
2023-03-26T19:41:52.601Z,99055.50
2023-03-26T19:44:32.171Z,99038.97
2023-03-26T19:47:35.274Z,99050.19
2023-03-26T19:50:34.274Z,99054.72
2023-03-26T19:53:16.614Z,99045.00
2023-03-26T19:56:13.349Z,99028.41
2023-03-26T19:58:43.182Z,99024.91
2023-03-26T20:01:20.894Z,99031.78
2023-03-26T20:03:52.204Z,99032.78
2023-03-26T20:06:30.766Z,99023.47
2023-03-26T20:09:02.501Z,99017.13
2023-03-26T20:11:40.000Z,99012.97
2023-03-26T20:14:13.813Z,99009.53
2023-03-26T20:16:42.925Z,99009.75
2023-03-26T20:19:11.860Z,99000.91
2023-03-26T20:21:40.634Z,98996.03
2023-03-26T20:24:15.206Z,98990.91
2023-03-26T20:26:44.620Z,98989.16
2023-03-26T20:29:16.586Z,98983.59
2023-03-26T20:31:44.808Z,98987.09
2023-03-26T20:34:17.198Z,98982.63
2023-03-26T20:36:45.732Z,98973.72
2023-03-26T20:39:13.754Z,98970.91
2023-03-26T20:41:46.542Z,98959.75
2023-03-26T20:44:17.288Z,98971.84
2023-03-26T20:46:45.461Z,98958.56
2023-03-26T20:49:15.075Z,98955.91
2023-03-26T20:51:42.638Z,98948.87
2023-03-26T20:54:22.097Z,98943.47
2023-03-26T20:56:49.840Z,98936.72
2023-03-26T20:59:21.831Z,98936.47
2023-03-26T21:01:50.406Z,98941.87
2023-03-26T21:04:19.252Z,98939.84
2023-03-26T21:06:46.579Z,98933.47
2023-03-26T21:09:17.555Z,98931.66
2023-03-26T21:12:05.825Z,98933.28
2023-03-26T21:14:33.474Z,98950.44
2023-03-26T21:17:01.346Z,98974.81
2023-03-26T21:19:29.174Z,98972.47
2023-03-26T21:22:11.401Z,98957.13
2023-03-26T21:24:44.215Z,98963.97
2023-03-26T21:27:36.114Z,98966.78
2023-03-26T21:30:14.376Z,98975.91
2023-03-26T21:32:46.140Z,98984.97
2023-03-26T21:35:14.794Z,98975.78
2023-03-26T21:37:44.082Z,98974.44
2023-03-26T21:40:16.900Z,98971.13
2023-03-26T21:42:46.808Z,98976.81
2023-03-26T21:45:14.402Z,98968.06
2023-03-26T21:47:41.896Z,98973.56
2023-03-26T21:50:12.510Z,98964.47
2023-03-26T21:52:47.092Z,98959.56
2023-03-26T21:55:24.398Z,98943.19
2023-03-26T21:57:53.935Z,98944.81
2023-03-26T22:00:33.511Z,98949.09
2023-03-26T22:03:13.826Z,98931.38
2023-03-26T22:05:52.145Z,98943.47
2023-03-26T22:08:37.234Z,98937.16
2023-03-26T22:11:05.172Z,98931.91
2023-03-26T22:13:32.033Z,98928.09
2023-03-26T22:15:59.525Z,98929.81
2023-03-26T22:18:30.004Z,98922.53
2023-03-26T22:20:59.188Z,98920.19
2023-03-26T22:23:27.577Z,98914.97
2023-03-26T22:25:54.692Z,98921.13
2023-03-26T22:28:21.984Z,98928.75
2023-03-26T22:30:48.944Z,98926.75
2023-03-26T22:33:17.953Z,98920.63
2023-03-26T22:35:45.083Z,98922.66
2023-03-26T22:38:12.282Z,98918.41
2023-03-26T22:40:40.737Z,98924.06
2023-03-26T22:43:07.856Z,98924.81
2023-03-26T22:45:34.977Z,98919.28
2023-03-26T22:48:04.695Z,98914.94
2023-03-26T22:50:32.902Z,98910.72
2023-03-26T22:53:00.066Z,98914.38
2023-03-26T22:55:28.331Z,98901.31
2023-03-26T22:57:56.964Z,98907.62
2023-03-26T23:00:26.485Z,98897.41
2023-03-26T23:02:55.988Z,98891.25
2023-03-26T23:05:23.610Z,98876.66
2023-03-26T23:07:52.258Z,98881.03
2023-03-26T23:10:19.321Z,98878.22
2023-03-26T23:12:46.451Z,98863.38
2023-03-26T23:15:14.130Z,98860.13
2023-03-26T23:17:43.338Z,98868.62
2023-03-26T23:20:14.619Z,98874.84
2023-03-26T23:22:43.022Z,98863.59
2023-03-26T23:25:11.399Z,98868.81
2023-03-26T23:27:40.125Z,98861.94
2023-03-26T23:30:08.338Z,98862.47
2023-03-26T23:32:38.000Z,98857.28
2023-03-26T23:35:06.153Z,98860.28
2023-03-26T23:37:35.201Z,98855.09
2023-03-26T23:40:10.279Z,98845.69
2023-03-26T23:42:38.069Z,98854.56
2023-03-26T23:45:06.194Z,98848.28
2023-03-26T23:47:34.474Z,98843.84
2023-03-26T23:50:05.126Z,98846.62
2023-03-26T23:52:32.309Z,98825.75
2023-03-26T23:55:02.789Z,98829.59
2023-03-26T23:57:30.631Z,98824.44
2023-03-26T23:59:58.841Z,98824.34
